Time;durP1;ratioP1;P1;durP2;ratioP2;P2;SDS_P1;SDS_P2;PMS_P1;PMS_P2;Temp;Humidity;BMP_temperature;BMP_pressure;BME280_temperature;BME280_humidity;BME280_pressure;Samples;Min_cycle;Max_cycle;Signal;HPM_P1;HPM_P2
2022/12/15 00:39:57;;;;;;;;;;;-0.40;99.90;;;;;;4956811;29;20031;-72
2022/12/15 00:42:32;;;;;;;38.30;16.52;;;-0.50;99.90;;;;;;4962521;28;19913;-73
2022/12/15 00:45:01;;;;;;;44.42;19.65;;;-0.50;99.90;;;;;;4978103;28;20034;-73
2022/12/15 00:47:32;;;;;;;38.97;17.67;;;-0.50;99.90;;;;;;4979883;28;20049;-74
2022/12/15 01:20:25;;;;;;;34.30;17.48;;;-0.50;99.90;;;;;;4992555;28;20039;-74
2022/12/15 01:22:53;;;;;;;39.70;18.77;;;-0.50;99.90;;;;;;4983135;28;20035;-74
2022/12/15 01:25:24;;;;;;;39.35;19.95;;;-0.50;99.90;;;;;;4974552;28;20037;-74
2022/12/15 01:27:50;;;;;;;38.95;19.88;;;-0.50;99.90;;;;;;4987640;28;20038;-74
2022/12/15 01:30:18;;;;;;;38.53;19.05;;;-0.60;99.90;;;;;;4980837;28;20121;-74
2022/12/15 01:32:44;;;;;;;37.53;18.92;;;-0.60;99.90;;;;;;4973017;28;20532;-74
2022/12/15 01:35:14;;;;;;;36.85;18.77;;;-0.70;99.90;;;;;;4974315;28;20117;-72
2022/12/15 01:37:40;;;;;;;41.08;20.15;;;-0.70;99.90;;;;;;4978182;28;20027;-74
2022/12/15 01:42:58;;;;;;;39.90;19.58;;;-0.70;99.90;;;;;;4977024;28;20045;-74
2022/12/15 01:45:30;;;;;;;35.88;17.25;;;-0.80;99.90;;;;;;4987237;28;20039;-74
2022/12/15 01:48:04;;;;;;;34.28;18.33;;;-0.80;99.90;;;;;;4972635;28;20161;-73
2022/12/15 01:50:34;;;;;;;37.25;18.60;;;-0.80;99.90;;;;;;4971291;28;20030;-74
2022/12/15 01:53:06;;;;;;;37.45;19.88;;;-0.90;99.90;;;;;;4977150;28;20138;-74
2022/12/15 01:55:37;;;;;;;36.72;19.13;;;-0.90;99.90;;;;;;4976693;28;20065;-73
2022/12/15 01:58:07;;;;;;;39.15;19.83;;;-0.90;99.90;;;;;;4966437;28;20029;-73
2022/12/15 02:00:41;;;;;;;42.08;20.10;;;-0.90;99.90;;;;;;4976235;28;20034;-73
2022/12/15 02:03:08;;;;;;;41.42;20.27;;;-0.90;99.90;;;;;;4972188;28;20023;-74
2022/12/15 02:05:41;;;;;;;41.67;20.70;;;-0.90;99.90;;;;;;4990224;28;20038;-73
2022/12/15 02:08:08;;;;;;;42.72;20.73;;;-0.90;99.90;;;;;;4954834;28;20050;-74
2022/12/15 02:11:00;;;;;;;42.63;21.70;;;-0.90;99.90;;;;;;4976996;28;20023;-74
2022/12/15 02:13:43;;;;;;;41.38;21.85;;;-0.90;99.90;;;;;;4972868;28;20034;-74
2022/12/15 02:16:27;;;;;;;42.88;21.58;;;-0.90;99.90;;;;;;4974322;28;20443;-74
2022/12/15 02:19:17;;;;;;;45.20;21.00;;;-0.90;99.90;;;;;;4973947;28;20038;-74
2022/12/15 02:22:06;;;;;;;45.00;21.23;;;-0.90;99.90;;;;;;4972475;28;20114;-74
2022/12/15 02:24:52;;;;;;;40.47;20.83;;;-0.90;99.90;;;;;;4973904;28;20466;-73
2022/12/15 02:27:18;;;;;;;41.13;18.98;;;-1.00;99.90;;;;;;4973293;28;20031;-74
2022/12/15 02:30:02;;;;;;;41.17;20.67;;;-0.90;99.90;;;;;;4974691;28;20030;-74
2022/12/15 02:32:36;;;;;;;40.22;19.80;;;-0.90;99.90;;;;;;4993511;28;20030;-74
2022/12/15 02:35:09;;;;;;;42.00;20.88;;;-1.00;99.90;;;;;;4982017;28;20023;-74
2022/12/15 02:37:37;;;;;;;42.25;20.15;;;-1.00;99.90;;;;;;4972470;28;20483;-73
2022/12/15 02:40:06;;;;;;;45.17;20.45;;;-1.10;99.90;;;;;;4972407;28;20633;-73
2022/12/15 02:42:35;;;;;;;43.10;20.23;;;-1.10;99.90;;;;;;4981231;28;20033;-74
2022/12/15 02:45:08;;;;;;;44.17;21.08;;;-1.00;99.90;;;;;;4992738;28;20532;-74
2022/12/15 02:47:36;;;;;;;;;;;-1.00;99.90;;;;;;4993680;28;20030;-74
2022/12/15 02:50:16;;;;;;;47.90;21.42;;;-1.00;99.90;;;;;;4991024;28;20059;-74
2022/12/15 02:53:19;;;;;;;45.38;21.45;;;-1.00;99.90;;;;;;4991136;28;20073;-74
2022/12/15 02:56:07;;;;;;;43.75;20.58;;;-1.00;99.90;;;;;;4990749;28;20022;-74
2022/12/15 02:58:45;;;;;;;41.30;20.23;;;-1.00;99.90;;;;;;4992465;28;20523;-73
2022/12/15 03:01:13;;;;;;;40.10;19.67;;;-1.00;99.90;;;;;;4990833;28;20554;-74
2022/12/15 03:03:47;;;;;;;44.20;20.80;;;-1.00;99.90;;;;;;4992130;28;20102;-74
2022/12/15 03:06:16;;;;;;;45.92;20.95;;;-1.00;99.90;;;;;;4992101;28;20018;-74
2022/12/15 03:08:41;;;;;;;43.55;20.95;;;-1.10;99.90;;;;;;4991967;28;20506;-73
2022/12/15 03:11:07;;;;;;;44.45;21.35;;;-1.10;99.90;;;;;;4990923;28;20105;-74
2022/12/15 03:13:33;;;;;;;42.55;20.38;;;-1.10;99.90;;;;;;4992192;28;20072;-73
2022/12/15 03:16:01;;;;;;;44.83;21.85;;;-1.00;99.90;;;;;;4990633;28;20022;-74
2022/12/15 03:18:27;;;;;;;42.83;20.00;;;-1.00;99.90;;;;;;4990718;28;20093;-74
2022/12/15 03:20:53;;;;;;;40.55;19.67;;;-1.00;99.90;;;;;;4992062;28;20019;-73
2022/12/15 03:23:21;;;;;;;41.35;20.45;;;-1.00;99.90;;;;;;4976931;28;20122;-74
2022/12/15 03:25:54;;;;;;;45.55;22.02;;;-1.00;99.90;;;;;;4990106;28;20026;-74
2022/12/15 03:28:20;;;;;;;45.87;22.47;;;-1.00;99.90;;;;;;4985949;28;20487;-74
2022/12/15 03:30:47;;;;;;;44.60;22.08;;;-1.00;99.90;;;;;;4972456;28;20106;-74
2022/12/15 03:33:12;;;;;;;44.90;21.83;;;-1.00;99.90;;;;;;4972357;28;20054;-74
2022/12/15 03:35:41;;;;;;;45.88;22.20;;;-1.00;99.90;;;;;;4970728;28;20054;-74
2022/12/15 03:38:07;;;;;;;45.03;20.75;;;-1.00;99.90;;;;;;4978043;28;20438;-74
2022/12/15 03:40:39;;;;;;;45.67;21.65;;;-1.00;99.90;;;;;;4975498;28;20142;-74
2022/12/15 03:43:04;;;;;;;40.72;20.42;;;-1.00;99.90;;;;;;4986219;28;20026;-74
2022/12/15 03:45:30;;;;;;;42.53;21.08;;;-1.00;99.90;;;;;;4994975;28;20039;-75
2022/12/15 03:47:56;;;;;;;42.47;20.77;;;-1.00;99.90;;;;;;4975598;28;20372;-74
2022/12/15 03:50:31;;;;;;;40.05;19.17;;;-1.00;99.90;;;;;;4974540;28;20035;-72
2022/12/15 03:52:59;;;;;;;40.58;19.95;;;-1.00;99.90;;;;;;4977449;28;20105;-75
2022/12/15 03:55:27;;;;;;;38.92;18.45;;;-1.00;99.90;;;;;;4991334;28;20089;-75
2022/12/15 03:57:53;;;;;;;41.42;19.20;;;-1.00;99.90;;;;;;4976374;28;20093;-75
2022/12/15 04:00:20;;;;;;;42.92;20.75;;;-1.10;99.90;;;;;;4972308;28;20027;-74
2022/12/15 04:02:49;;;;;;;41.53;19.63;;;-1.00;99.90;;;;;;4974828;28;20484;-74
2022/12/15 04:05:25;;;;;;;39.53;19.38;;;-1.10;99.90;;;;;;4973524;28;20031;-74
2022/12/15 04:07:55;;;;;;;42.33;20.60;;;-1.10;99.90;;;;;;4969283;28;20432;-74
2022/12/15 04:10:26;;;;;;;37.50;19.25;;;-1.10;99.90;;;;;;4972884;28;20078;-74
2022/12/15 04:13:17;;;;;;;40.90;20.25;;;-1.10;99.90;;;;;;4973941;28;20102;-72
2022/12/15 04:15:46;;;;;;;42.95;19.73;;;-1.10;99.90;;;;;;4978598;28;20042;-74
2022/12/15 04:18:17;;;;;;;42.50;19.80;;;-1.10;99.90;;;;;;4977807;28;20431;-73
2022/12/15 04:20:46;;;;;;;42.08;20.50;;;-1.20;99.90;;;;;;4971563;28;20038;-74
2022/12/15 04:23:18;;;;;;;43.65;21.15;;;-1.20;99.90;;;;;;4973219;28;20390;-73
2022/12/15 05:32:32;;;;;;;49.33;22.40;;;-1.20;99.90;;;;;;4972841;28;20132;-73
2022/12/15 05:35:03;;;;;;;46.63;22.83;;;-1.10;99.90;;;;;;4968715;28;20054;-74
2022/12/15 05:37:29;;;;;;;52.22;22.08;;;-1.10;99.90;;;;;;4974172;28;20102;-74
2022/12/15 05:39:57;;;;;;;48.47;22.38;;;-1.10;99.90;;;;;;4967666;28;20114;-74
2022/12/15 05:42:26;;;;;;;46.75;22.02;;;-1.10;99.90;;;;;;4974138;28;20062;-74
2022/12/15 05:44:52;;;;;;;47.45;23.00;;;-1.10;99.90;;;;;;4996833;23;20038;-77
2022/12/15 05:47:17;;;;;;;49.78;23.52;;;-1.10;99.90;;;;;;4968272;28;20472;-78
2022/12/15 05:49:43;;;;;;;47.10;22.20;;;-1.10;99.90;;;;;;4967995;28;20043;-78
2022/12/15 05:52:08;;;;;;;48.67;23.08;;;-1.10;99.90;;;;;;4966610;28;20440;-77
2022/12/15 05:54:34;;;;;;;48.33;22.55;;;-1.10;99.90;;;;;;4966455;28;20057;-77
2022/12/15 05:57:00;;;;;;;48.28;22.25;;;-1.10;99.90;;;;;;4966155;28;20982;-78
2022/12/15 05:59:25;;;;;;;50.40;22.58;;;-1.10;99.90;;;;;;4964538;28;20153;-77
2022/12/15 06:01:51;;;;;;;47.47;22.13;;;-1.00;99.90;;;;;;4963562;28;20027;-77
2022/12/15 06:04:17;;;;;;;47.60;22.80;;;-1.00;99.90;;;;;;4966834;28;20023;-77
2022/12/15 06:06:42;;;;;;;48.95;24.02;;;-1.00;99.90;;;;;;4963947;28;20573;-77
2022/12/15 06:09:08;;;;;;;49.75;22.98;;;-1.00;99.90;;;;;;4952147;28;20591;-77
2022/12/15 06:11:36;;;;;;;50.65;22.73;;;-0.90;99.90;;;;;;4965420;28;20082;-77
2022/12/15 06:14:01;;;;;;;42.75;20.77;;;-1.00;99.90;;;;;;4963740;28;20023;-77
2022/12/15 06:16:27;;;;;;;46.28;22.33;;;-1.00;99.90;;;;;;4969858;28;20026;-77
2022/12/15 06:18:57;;;;;;;45.55;20.17;;;-1.00;99.90;;;;;;4962361;28;20030;-77
2022/12/15 06:21:31;;;;;;;42.17;21.27;;;-1.00;99.90;;;;;;4964140;28;20097;-77
2022/12/15 06:23:58;;;;;;;47.53;21.23;;;-1.00;99.90;;;;;;4963832;28;20448;-77
2022/12/15 06:26:37;;;;;;;50.00;22.88;;;-1.00;99.90;;;;;;4965866;28;20411;-78
2022/12/15 06:29:07;;;;;;;47.72;21.08;;;-1.00;99.90;;;;;;4969600;28;20031;-76
2022/12/15 06:31:34;;;;;;;48.53;22.45;;;-1.10;99.90;;;;;;4972212;28;20023;-77
2022/12/15 06:34:01;;;;;;;49.35;22.35;;;-1.10;99.90;;;;;;4964195;28;20129;-77
2022/12/15 06:36:29;;;;;;;47.33;22.20;;;-1.00;99.90;;;;;;4961833;28;20058;-78
2022/12/15 06:38:58;;;;;;;49.35;22.35;;;-1.10;99.90;;;;;;4966207;28;20503;-78
2022/12/15 06:41:23;;;;;;;48.60;22.63;;;-1.10;99.90;;;;;;4981885;28;20037;-78
2022/12/15 06:43:50;;;;;;;46.78;22.42;;;-1.10;99.90;;;;;;4964149;28;20023;-77
2022/12/15 06:46:16;;;;;;;49.95;21.58;;;-1.10;99.90;;;;;;4966622;28;20039;-77
2022/12/15 06:48:44;;;;;;;51.92;22.95;;;-1.10;99.90;;;;;;4966471;28;20077;-77
2022/12/15 06:51:12;;;;;;;47.17;21.85;;;-1.10;99.90;;;;;;4967198;28;20384;-78
2022/12/15 06:53:39;;;;;;;49.63;24.10;;;-1.20;99.90;;;;;;4966135;28;20384;-77
2022/12/15 06:56:12;;;;;;;47.33;23.35;;;-1.10;99.90;;;;;;4962725;28;20069;-77
2022/12/15 06:58:37;;;;;;;46.10;22.83;;;-1.10;99.90;;;;;;4964690;28;20030;-78
2022/12/15 07:01:06;;;;;;;46.85;21.52;;;-1.10;99.90;;;;;;4965424;28;20126;-78
2022/12/15 07:03:33;;;;;;;43.58;21.85;;;-1.10;99.90;;;;;;4968825;28;20030;-78
2022/12/15 07:06:06;;;;;;;43.47;20.65;;;-1.10;99.90;;;;;;4964119;28;20038;-78
2022/12/15 07:08:31;;;;;;;54.78;23.15;;;-1.10;99.90;;;;;;4967728;28;20030;-78
2022/12/15 07:10:57;;;;;;;48.65;22.58;;;-1.10;99.90;;;;;;4964895;28;20050;-77
2022/12/15 07:13:23;;;;;;;52.63;23.10;;;-1.10;99.90;;;;;;4965302;28;20065;-79
2022/12/15 07:15:48;;;;;;;53.90;23.02;;;-1.10;99.90;;;;;;4968834;28;20399;-79
2022/12/15 07:18:15;;;;;;;49.55;22.73;;;-1.10;99.90;;;;;;4966902;28;20035;-78
2022/12/15 07:20:41;;;;;;;51.47;23.65;;;-1.10;99.90;;;;;;4970776;28;20538;-78
2022/12/15 07:23:08;;;;;;;52.75;24.00;;;-1.00;99.90;;;;;;4971426;28;20081;-77
2022/12/15 07:25:38;;;;;;;55.55;24.63;;;-1.00;99.90;;;;;;4969104;28;20443;-77
2022/12/15 07:28:04;;;;;;;47.95;23.55;;;-1.00;99.90;;;;;;4970740;28;20025;-77
2022/12/15 07:30:31;;;;;;;58.25;25.50;;;-0.90;99.90;;;;;;4968107;28;20033;-77
2022/12/15 07:32:57;;;;;;;49.45;23.00;;;-0.90;99.90;;;;;;4972550;28;20035;-79
2022/12/15 07:35:22;;;;;;;52.10;23.48;;;-0.90;99.90;;;;;;4968917;28;20023;-79
2022/12/15 07:37:48;;;;;;;51.50;22.83;;;-0.90;99.90;;;;;;4968278;28;20555;-80
2022/12/15 07:40:13;;;;;;;46.65;22.63;;;-0.90;99.90;;;;;;4968478;28;20031;-79
2022/12/15 07:42:39;;;;;;;55.72;24.52;;;-0.80;99.90;;;;;;4970405;28;20114;-79
2022/12/15 07:45:06;;;;;;;48.25;22.23;;;-0.80;99.90;;;;;;4968405;28;20049;-78
2022/12/15 07:47:32;;;;;;;52.97;24.48;;;-0.90;99.90;;;;;;4970462;28;20129;-79
2022/12/15 07:49:58;;;;;;;52.22;23.27;;;-0.80;99.90;;;;;;4969202;28;20495;-80
2022/12/15 07:52:23;;;;;;;47.58;21.95;;;-0.80;99.90;;;;;;4968097;28;20513;-79
2022/12/15 07:54:49;;;;;;;48.72;23.58;;;-0.80;99.90;;;;;;4967315;28;20074;-78
2022/12/15 07:57:15;;;;;;;53.92;22.50;;;-0.90;99.90;;;;;;4970390;28;20031;-79
2022/12/15 07:59:41;;;;;;;50.55;23.85;;;-0.80;99.90;;;;;;4971487;28;20077;-79
2022/12/15 08:02:11;;;;;;;53.92;24.02;;;-0.90;99.90;;;;;;4964759;28;20078;-79
2022/12/15 08:04:38;;;;;;;50.80;23.30;;;-0.80;99.90;;;;;;4963755;28;20596;-79
2022/12/15 08:07:04;;;;;;;52.55;24.27;;;-0.80;99.90;;;;;;4962908;28;20377;-79
2022/12/15 08:09:32;;;;;;;50.63;23.40;;;-0.80;99.90;;;;;;4968108;28;20038;-79
2022/12/15 08:11:58;;;;;;;57.78;24.77;;;-0.70;99.90;;;;;;4967170;28;20023;-79
2022/12/15 08:14:24;;;;;;;50.97;23.25;;;-0.60;99.90;;;;;;4967689;28;20077;-79
2022/12/15 08:16:50;;;;;;;47.05;22.83;;;-0.60;99.90;;;;;;4967285;28;20126;-79
2022/12/15 08:19:16;;;;;;;46.30;23.52;;;-0.50;99.90;;;;;;4966077;28;20022;-79
2022/12/15 08:21:44;;;;;;;51.30;22.70;;;-0.40;99.90;;;;;;4972074;28;20039;-79
2022/12/15 08:24:11;;;;;;;47.15;22.33;;;-0.40;99.90;;;;;;4964700;28;20106;-79
2022/12/15 08:26:37;;;;;;;48.90;22.48;;;-0.30;99.90;;;;;;4967219;28;20042;-79
2022/12/15 08:29:05;;;;;;;46.10;21.25;;;-0.20;99.90;;;;;;4968648;28;20031;-79
2022/12/15 08:31:32;;;;;;;51.65;22.73;;;-0.20;99.90;;;;;;4967473;28;20026;-79
2022/12/15 08:34:02;;;;;;;48.22;22.40;;;-0.10;99.90;;;;;;4968406;28;20522;-78
2022/12/15 08:36:28;;;;;;;50.25;23.83;;;-0.10;99.90;;;;;;4962779;28;20034;-77
2022/12/15 08:38:58;;;;;;;57.03;23.85;;;-0.10;99.90;;;;;;4967977;28;20023;-78
2022/12/15 08:41:27;;;;;;;49.42;22.35;;;0.00;99.90;;;;;;4967776;28;20503;-77
2022/12/15 08:43:54;;;;;;;48.65;24.13;;;0.00;99.90;;;;;;4969630;28;20459;-78
2022/12/15 08:46:28;;;;;;;47.10;22.52;;;0.10;99.90;;;;;;4966066;28;20134;-78
2022/12/15 08:48:54;;;;;;;47.53;23.40;;;0.10;99.90;;;;;;4966582;28;20030;-77
2022/12/15 08:51:21;;;;;;;44.92;23.00;;;0.10;99.90;;;;;;4965444;28;20031;-77
2022/12/15 08:53:47;;;;;;;52.90;23.48;;;0.10;99.90;;;;;;4965543;28;20023;-77
2022/12/15 08:56:16;;;;;;;49.45;23.80;;;0.10;99.90;;;;;;4969372;28;20807;-77
2022/12/15 08:58:43;;;;;;;49.88;22.95;;;0.20;99.90;;;;;;4968872;28;20077;-77
2022/12/15 09:01:21;;;;;;;49.58;25.05;;;0.20;99.90;;;;;;4960240;28;20134;-77
2022/12/15 09:03:48;;;;;;;47.70;23.05;;;0.20;99.90;;;;;;4969094;28;20023;-77
2022/12/15 09:06:17;;;;;;;53.53;24.40;;;0.20;99.90;;;;;;4964162;28;20108;-76
2022/12/15 09:08:43;;;;;;;55.72;24.80;;;0.20;99.90;;;;;;4983471;28;20035;-77
2022/12/15 09:11:08;;;;;;;52.22;24.38;;;0.20;99.90;;;;;;4968487;28;20034;-78
2022/12/15 09:13:35;;;;;;;55.45;25.58;;;0.10;99.90;;;;;;4962279;28;20086;-78
2022/12/15 09:16:06;;;;;;;59.47;27.08;;;0.00;99.90;;;;;;4965508;28;20097;-78
2022/12/15 09:18:33;;;;;;;59.05;26.48;;;0.00;99.90;;;;;;4967808;28;20479;-78
2022/12/15 09:21:04;;;;;;;56.90;26.85;;;0.00;99.90;;;;;;4966971;28;21153;-78
2022/12/15 09:23:30;;;;;;;54.05;27.20;;;-0.10;99.90;;;;;;4965730;28;20034;-78
2022/12/15 09:26:03;;;;;;;55.08;26.13;;;-0.10;99.90;;;;;;4964990;28;20469;-78
2022/12/15 09:28:29;;;;;;;;;;;0.00;99.90;;;;;;4967306;28;20373;-78
2022/12/15 09:31:05;;;;;;;51.35;25.02;;;0.00;99.90;;;;;;4967389;28;19928;-78
2022/12/15 09:33:33;;;;;;;53.13;23.95;;;-0.10;99.90;;;;;;4962787;28;20385;-77
2022/12/15 09:35:59;;;;;;;48.45;24.77;;;-0.10;99.90;;;;;;4962068;28;20029;-78
2022/12/15 09:38:24;;;;;;;51.33;24.17;;;0.00;99.90;;;;;;4966047;28;20035;-79
2022/12/15 09:40:50;;;;;;;54.45;25.25;;;-0.10;99.90;;;;;;4969899;28;20026;-78
2022/12/15 09:43:21;;;;;;;58.92;26.02;;;0.00;99.90;;;;;;4970905;28;20041;-79
2022/12/15 09:46:00;;;;;;;53.30;25.92;;;-0.10;99.90;;;;;;4961932;28;20031;-78
2022/12/15 09:48:34;;;;;;;56.90;24.95;;;0.00;99.90;;;;;;4961567;28;20035;-78
2022/12/15 09:51:03;;;;;;;54.95;25.73;;;0.10;99.90;;;;;;4966913;28;20029;-77
2022/12/15 09:53:28;;;;;;;57.65;27.60;;;0.00;99.90;;;;;;4967056;28;20025;-78
2022/12/15 09:56:02;;;;;;;48.88;24.05;;;0.00;99.90;;;;;;4966642;28;20455;-78
2022/12/15 09:58:48;;;;;;;58.90;25.73;;;0.00;99.90;;;;;;4964525;28;20030;-78
2022/12/15 10:01:42;;;;;;;51.15;24.85;;;0.00;99.90;;;;;;4963619;28;20039;-78
2022/12/15 10:04:26;;;;;;;60.22;26.88;;;0.00;99.90;;;;;;4952939;28;20537;-78
2022/12/15 10:07:10;;;;;;;61.50;25.70;;;0.00;99.90;;;;;;4952011;23;1086505;-76
2022/12/15 10:09:36;;;;;;;;;;;0.00;99.90;;;;;;4991444;28;20351;-76
2022/12/15 10:12:29;;;;;;;60.42;26.27;;;-0.10;99.90;;;;;;4987802;28;19944;-76
2022/12/15 10:15:21;;;;;;;62.58;28.55;;;-0.10;99.90;;;;;;4985148;28;20038;-76
2022/12/15 10:18:21;;;;;;;63.58;27.35;;;-0.10;99.90;;;;;;4989624;28;20061;-76
2022/12/15 10:20:47;;;;;;;63.42;25.75;;;-0.10;99.90;;;;;;4986189;28;20102;-78
2022/12/15 10:23:16;;;;;;;69.15;28.73;;;-0.10;99.90;;;;;;4990534;28;20618;-77
2022/12/15 10:26:24;;;;;;;68.28;29.33;;;-0.10;99.90;;;;;;4989025;28;20497;-79
2022/12/15 10:29:13;;;;;;;69.22;28.10;;;-0.10;99.90;;;;;;4967372;28;20038;-77
2022/12/15 10:31:44;;;;;;;63.88;26.77;;;-0.10;99.90;;;;;;4984125;28;20089;-77
2022/12/15 10:34:23;;;;;;;62.95;27.48;;;-0.10;99.90;;;;;;4991714;28;20038;-77
2022/12/15 10:36:51;;;;;;;60.13;28.33;;;-0.20;99.90;;;;;;4987346;28;20042;-75
2022/12/15 10:39:17;;;;;;;56.70;27.85;;;-0.20;99.90;;;;;;4988016;28;20490;-77
2022/12/15 10:41:43;;;;;;;66.05;28.60;;;-0.20;99.90;;;;;;4997108;28;20046;-77
2022/12/15 10:44:35;;;;;;;64.75;29.05;;;-0.10;99.90;;;;;;4984859;28;20383;-77
2022/12/15 10:47:16;;;;;;;58.70;27.42;;;-0.10;99.90;;;;;;4987956;28;20577;-76
2022/12/15 10:49:41;;;;;;;56.20;26.63;;;0.00;99.90;;;;;;4991138;28;20034;-76
2022/12/15 10:52:34;;;;;;;58.20;26.45;;;-0.10;99.90;;;;;;4984301;28;20026;-75
2022/12/15 10:55:00;;;;;;;84.80;30.13;;;-0.10;99.90;;;;;;4987048;28;20120;-76
2022/12/15 10:57:30;;;;;;;61.38;26.48;;;0.00;99.90;;;;;;4984925;28;20128;-77
2022/12/15 11:00:17;;;;;;;64.82;28.80;;;0.00;99.90;;;;;;4986545;28;20073;-76
2022/12/15 11:02:43;;;;;;;69.00;29.65;;;0.00;99.90;;;;;;4984996;28;20570;-77
2022/12/15 11:05:15;;;;;;;63.35;29.73;;;0.10;99.90;;;;;;4985940;28;20043;-77
2022/12/15 11:07:51;;;;;;;75.13;31.08;;;0.10;99.90;;;;;;4987164;28;20042;-77
2022/12/15 11:10:21;;;;;;;62.00;27.90;;;0.10;99.90;;;;;;4985427;28;20491;-76
2022/12/15 11:13:14;;;;;;;75.65;30.83;;;0.10;99.90;;;;;;4989001;28;20022;-77
2022/12/15 11:15:51;;;;;;;66.63;29.17;;;0.10;99.90;;;;;;4985716;28;20041;-78
2022/12/15 11:18:26;;;;;;;68.97;30.08;;;0.10;99.90;;;;;;4987956;28;20023;-77
2022/12/15 11:21:03;;;;;;;69.50;29.85;;;0.10;99.90;;;;;;4985352;28;20072;-76
2022/12/15 11:24:11;;;;;;;67.55;28.58;;;0.20;99.90;;;;;;4974128;28;20057;-76
2022/12/15 11:26:45;;;;;;;65.57;28.35;;;0.20;99.90;;;;;;4912076;29;20028;-77
2022/12/15 11:29:23;;;;;;;67.85;29.45;;;0.20;99.90;;;;;;4971950;28;20065;-77
2022/12/15 11:31:51;;;;;;;67.30;29.08;;;0.20;99.90;;;;;;4993095;28;20054;-77
2022/12/15 11:34:24;;;;;;;71.88;29.25;;;0.20;99.90;;;;;;4984984;28;20026;-76
2022/12/15 11:37:10;;;;;;;76.80;32.37;;;0.30;99.90;;;;;;4991525;28;20107;-76
2022/12/15 11:39:47;;;;;;;68.32;29.40;;;0.30;99.90;;;;;;4981543;28;20288;-76
2022/12/15 11:42:31;;;;;;;71.88;29.77;;;0.30;99.90;;;;;;4985685;28;20050;-76
2022/12/15 11:45:24;;;;;;;64.97;29.65;;;0.40;99.90;;;;;;4988164;28;20410;-75
2022/12/15 11:47:58;;;;;;;72.45;31.55;;;0.40;99.90;;;;;;4985284;28;20409;-76
2022/12/15 11:50:32;;;;;;;63.67;28.38;;;0.50;99.90;;;;;;4991025;28;20061;-75
2022/12/15 11:53:16;;;;;;;;;;;0.50;99.90;;;;;;4990487;28;20014;-75
2022/12/15 11:56:11;;;;;;;63.17;28.63;;;0.50;99.90;;;;;;4985233;28;20484;-75
2022/12/15 11:59:03;;;;;;;59.40;26.80;;;0.50;99.90;;;;;;4979457;28;20046;-76
2022/12/15 12:01:40;;;;;;;65.47;27.33;;;0.60;99.90;;;;;;4978377;28;20031;-75
2022/12/15 12:04:47;;;;;;;64.70;28.63;;;0.60;99.90;;;;;;4996389;28;20022;-75
2022/12/15 12:07:24;;;;;;;63.05;27.45;;;0.60;99.90;;;;;;4984711;28;20046;-75
2022/12/15 12:10:14;;;;;;;61.92;27.55;;;0.60;99.90;;;;;;4983545;28;20018;-75
2022/12/15 12:12:59;;;;;;;66.68;30.00;;;0.50;99.90;;;;;;4994734;28;20034;-76
2022/12/15 12:15:36;;;;;;;58.00;28.30;;;0.50;99.90;;;;;;4990154;28;20114;-75
2022/12/15 12:18:21;;;;;;;56.78;27.15;;;0.60;99.90;;;;;;4991747;28;20073;-75
2022/12/15 12:21:01;;;;;;;66.38;28.38;;;0.60;99.90;;;;;;4983887;28;20479;-76
2022/12/15 12:23:35;;;;;;;59.63;27.08;;;0.60;99.90;;;;;;4984500;28;20034;-75
2022/12/15 12:26:15;;;;;;;62.92;28.58;;;0.60;99.90;;;;;;4990924;28;20434;-75
2022/12/15 12:28:45;;;;;;;63.25;28.10;;;0.60;99.90;;;;;;4987516;28;20486;-75
2022/12/15 12:31:40;;;;;;;59.47;27.65;;;0.60;99.90;;;;;;4985163;28;20076;-76
2022/12/15 12:34:16;;;;;;;60.85;28.10;;;0.50;99.90;;;;;;4987725;28;20022;-76
2022/12/15 12:36:43;;;;;;;65.35;28.00;;;0.50;99.90;;;;;;4984017;28;20090;-76
2022/12/15 12:39:21;;;;;;;59.97;28.55;;;0.50;99.90;;;;;;4986396;28;20068;-76
2022/12/15 12:42:14;;;;;;;65.85;29.50;;;0.50;99.90;;;;;;4987034;28;20068;-75
2022/12/15 12:44:40;;;;;;;59.75;28.30;;;0.50;99.90;;;;;;4989420;28;20014;-77
2022/12/15 12:47:29;;;;;;;64.90;29.08;;;0.50;99.90;;;;;;4989488;28;20019;-75
2022/12/15 12:50:24;;;;;;;66.00;28.42;;;0.40;99.90;;;;;;4992150;28;20072;-75
2022/12/15 12:52:56;;;;;;;69.75;28.50;;;0.40;99.90;;;;;;4978870;28;20506;-75
2022/12/15 12:55:25;;;;;;;62.88;29.45;;;0.40;99.90;;;;;;4985299;28;20460;-75
2022/12/15 12:57:52;;;;;;;62.85;29.10;;;0.40;99.90;;;;;;4988594;28;20019;-75
2022/12/15 13:00:26;;;;;;;58.30;26.48;;;0.40;99.90;;;;;;4992142;28;20438;-75
2022/12/15 13:03:08;;;;;;;63.13;28.30;;;0.40;99.90;;;;;;4991494;28;20037;-76
2022/12/15 13:05:36;;;;;;;60.45;28.05;;;0.40;99.90;;;;;;4987292;28;20068;-76
2022/12/15 13:08:05;;;;;;;63.17;29.17;;;0.40;99.90;;;;;;4981463;28;23697;-76
2022/12/15 13:10:36;;;;;;;58.65;26.67;;;0.30;99.90;;;;;;4981895;28;20475;-76
2022/12/15 13:13:23;;;;;;;58.60;28.05;;;0.30;99.90;;;;;;4993603;28;20033;-76
2022/12/15 13:15:57;;;;;;;60.65;27.42;;;0.30;99.90;;;;;;4975658;28;20052;-75
2022/12/15 13:18:26;;;;;;;66.28;28.08;;;0.20;99.90;;;;;;4981628;28;20042;-75
2022/12/15 13:20:56;;;;;;;58.72;27.58;;;0.30;99.90;;;;;;4985940;28;20218;-75
2022/12/15 13:23:24;;;;;;;67.45;28.20;;;0.20;99.90;;;;;;4987886;28;20499;-75
2022/12/15 13:25:56;;;;;;;58.60;26.55;;;0.20;99.90;;;;;;4987524;28;20034;-76
2022/12/15 13:28:27;;;;;;;59.78;28.27;;;0.20;99.90;;;;;;4988414;28;20034;-75
2022/12/15 13:31:15;;;;;;;58.85;27.17;;;0.20;99.90;;;;;;4979258;28;20026;-76
2022/12/15 13:33:51;;;;;;;61.10;25.83;;;0.20;99.90;;;;;;4984301;28;20728;-75
2022/12/15 13:36:36;;;;;;;60.60;27.73;;;0.20;99.90;;;;;;4980321;28;20518;-75
2022/12/15 13:39:14;;;;;;;63.88;27.58;;;0.30;99.90;;;;;;4990141;28;20109;-77
2022/12/15 13:41:45;;;;;;;61.45;28.92;;;0.30;99.90;;;;;;4972415;28;20018;-76
2022/12/15 13:44:23;;;;;;;65.97;28.33;;;0.30;99.90;;;;;;4985078;28;20391;-75
2022/12/15 13:46:52;;;;;;;61.97;28.15;;;0.30;99.90;;;;;;4973318;28;20079;-75
2022/12/15 13:49:27;;;;;;;54.95;26.52;;;0.30;99.90;;;;;;4977930;28;20360;-76
2022/12/15 13:52:01;;;;;;;59.92;27.45;;;0.40;99.90;;;;;;4978106;28;20114;-75
2022/12/15 13:54:32;;;;;;;;;;;0.30;99.90;;;;;;4982681;28;20495;-77
2022/12/15 13:57:10;;;;;;;64.35;27.95;;;0.40;99.90;;;;;;4988510;28;20012;-77
2022/12/15 13:59:39;;;;;;;59.38;28.08;;;0.40;99.90;;;;;;4996743;28;20054;-78
2022/12/15 14:02:23;;;;;;;66.13;27.70;;;0.40;99.90;;;;;;4988856;28;20051;-78
2022/12/15 14:05:16;;;;;;;62.22;28.25;;;0.50;99.90;;;;;;4989329;28;20053;-76
2022/12/15 14:07:51;;;;;;;63.67;28.58;;;0.50;99.90;;;;;;4978777;28;20043;-77
2022/12/15 14:10:21;;;;;;;60.08;27.30;;;0.40;99.90;;;;;;4983447;28;20479;-77
2022/12/15 14:12:49;;;;;;;63.05;29.05;;;0.40;99.90;;;;;;4988328;28;20030;-78
2022/12/15 14:15:17;;;;;;;64.05;29.33;;;0.50;99.90;;;;;;4988505;28;20025;-76
2022/12/15 14:17:50;;;;;;;68.13;29.77;;;0.40;99.90;;;;;;4985050;28;20027;-80
2022/12/15 14:20:25;;;;;;;60.40;28.67;;;0.50;99.90;;;;;;4985679;28;20069;-77
2022/12/15 14:22:51;;;;;;;64.93;28.38;;;0.50;99.90;;;;;;4987132;28;20033;-77
2022/12/15 14:25:25;;;;;;;68.32;29.48;;;0.50;99.90;;;;;;4991247;28;20041;-77
2022/12/15 14:27:50;;;;;;;58.92;27.67;;;0.50;99.90;;;;;;4987611;28;20316;-76
2022/12/15 14:30:27;;;;;;;63.45;28.15;;;0.50;99.90;;;;;;4987950;28;20559;-76
2022/12/15 14:33:05;;;;;;;63.28;27.23;;;0.50;99.90;;;;;;4991006;28;20454;-76
2022/12/15 14:35:34;;;;;;;60.92;27.05;;;0.50;99.90;;;;;;4985619;28;20360;-77
2022/12/15 14:38:05;;;;;;;61.13;27.70;;;0.50;99.90;;;;;;4989261;28;20356;-76
2022/12/15 14:40:34;;;;;;;59.95;26.63;;;0.50;99.90;;;;;;4988672;28;20030;-79
2022/12/15 14:43:00;;;;;;;53.55;25.10;;;0.40;99.90;;;;;;4989927;28;20026;-75
2022/12/15 14:45:29;;;;;;;54.50;25.48;;;0.40;99.90;;;;;;4985273;28;20061;-75
2022/12/15 14:47:59;;;;;;;53.88;24.80;;;0.40;99.90;;;;;;4987719;28;20130;-76
2022/12/15 14:50:25;;;;;;;51.97;24.48;;;0.40;99.90;;;;;;4991379;28;20032;-76
2022/12/15 14:53:04;;;;;;;51.95;23.90;;;0.40;99.90;;;;;;4994309;28;20029;-76
2022/12/15 14:55:38;;;;;;;55.40;23.50;;;0.40;99.90;;;;;;4988994;28;20089;-76
2022/12/15 14:58:25;;;;;;;55.40;25.65;;;0.30;99.90;;;;;;4988536;28;20434;-78
2022/12/15 15:00:53;;;;;;;51.70;23.13;;;0.30;99.90;;;;;;4994054;28;20106;-77
2022/12/15 15:03:25;;;;;;;51.70;23.80;;;0.30;99.90;;;;;;4985137;28;20023;-78
2022/12/15 15:05:58;;;;;;;50.10;23.10;;;0.20;99.90;;;;;;4988193;28;20522;-77
2022/12/15 15:08:28;;;;;;;51.97;23.10;;;0.30;99.90;;;;;;4990165;28;20521;-77
2022/12/15 15:11:03;;;;;;;60.70;26.52;;;0.20;99.90;;;;;;4996693;28;20052;-78
2022/12/15 15:13:39;;;;;;;47.90;23.10;;;0.30;99.90;;;;;;4981620;28;20050;-76
2022/12/15 15:16:12;;;;;;;48.55;23.20;;;0.20;99.90;;;;;;4982655;28;20666;-77
2022/12/15 15:18:38;;;;;;;45.28;21.65;;;0.20;99.90;;;;;;4983258;28;20022;-77